Time;durP1;ratioP1;P1;durP2;ratioP2;P2;SDS_P1;SDS_P2;PMS_P1;PMS_P2;Temp;Humidity;BMP_temperature;BMP_pressure;BME280_temperature;BME280_humidity;BME280_pressure;Samples;Min_cycle;Max_cycle;Signal;HPM_P1;HPM_P2
2022/03/31 00:01:32;;;;;;;1.77;1.60;;;12.80;96.70;;;;;;5087138;28;20044;-76
2022/03/31 00:04:00;;;;;;;2.75;1.52;;;12.80;96.70;;;;;;5084306;28;20040;-76
2022/03/31 00:06:29;;;;;;;3.25;2.15;;;12.90;96.70;;;;;;5085382;28;20059;-76
2022/03/31 00:08:57;;;;;;;2.28;1.60;;;12.90;96.70;;;;;;5083729;28;20410;-77
2022/03/31 00:11:25;;;;;;;2.22;1.20;;;12.90;96.70;;;;;;5089048;28;20046;-76
2022/03/31 00:13:55;;;;;;;3.42;1.30;;;12.90;96.70;;;;;;5084957;28;20070;-76
2022/03/31 00:16:23;;;;;;;2.22;1.25;;;12.90;96.70;;;;;;5092951;28;20067;-76
2022/03/31 00:18:52;;;;;;;2.00;1.48;;;12.90;96.70;;;;;;5085471;28;20036;-76
2022/03/31 00:21:20;;;;;;;2.05;1.10;;;12.90;96.70;;;;;;5087304;28;20040;-77
2022/03/31 00:23:48;;;;;;;3.15;1.60;;;12.90;96.70;;;;;;5086617;28;20065;-76
2022/03/31 00:26:16;;;;;;;3.38;1.90;;;12.80;96.70;;;;;;5073060;28;20047;-76
2022/03/31 00:28:44;;;;;;;3.53;1.45;;;12.80;96.70;;;;;;5069196;28;20072;-76
2022/03/31 00:31:14;;;;;;;3.97;1.80;;;12.80;96.70;;;;;;5064714;28;20353;-76
2022/03/31 00:33:41;;;;;;;2.33;1.25;;;12.80;96.70;;;;;;5084621;28;20040;-76
2022/03/31 00:36:09;;;;;;;1.58;1.05;;;12.80;96.70;;;;;;5069986;28;20578;-76
2022/03/31 00:38:37;;;;;;;3.25;1.35;;;12.80;96.70;;;;;;5068827;28;20127;-77
2022/03/31 00:41:05;;;;;;;2.13;1.02;;;12.80;96.70;;;;;;5087042;28;20051;-76
2022/03/31 00:43:34;;;;;;;2.28;0.80;;;12.80;96.70;;;;;;5084431;28;20150;-76
2022/03/31 00:46:02;;;;;;;1.63;0.80;;;12.80;96.70;;;;;;5083316;28;20040;-76
2022/03/31 00:48:31;;;;;;;2.20;1.42;;;12.80;96.70;;;;;;5082169;28;20044;-76
2022/03/31 00:51:00;;;;;;;2.03;1.10;;;12.80;96.70;;;;;;5112881;27;20051;-76
2022/03/31 00:53:28;;;;;;;1.45;0.85;;;12.80;96.70;;;;;;5124895;27;20149;-76
2022/03/31 00:55:59;;;;;;;1.35;0.63;;;12.90;96.70;;;;;;5106226;27;20078;-80
2022/03/31 00:58:28;;;;;;;1.80;1.00;;;12.90;96.70;;;;;;5121450;27;20054;-79
2022/03/31 01:00:56;;;;;;;0.63;0.40;;;12.90;96.70;;;;;;5108868;27;20303;-80
2022/03/31 01:03:24;;;;;;;1.98;0.90;;;12.90;96.70;;;;;;5125975;27;20161;-79
2022/03/31 01:05:54;;;;;;;6.50;2.90;;;12.80;96.70;;;;;;5118916;27;20051;-80
2022/03/31 01:08:23;;;;;;;2.13;1.15;;;12.80;96.70;;;;;;5110056;27;20046;-80
2022/03/31 01:10:53;;;;;;;1.77;0.93;;;12.80;96.70;;;;;;5110835;27;20046;-80
2022/03/31 01:13:21;;;;;;;1.85;0.90;;;12.90;96.70;;;;;;5111144;27;20433;-80
2022/03/31 01:15:50;;;;;;;1.85;1.10;;;12.90;96.70;;;;;;5128366;27;20039;-80
2022/03/31 01:18:18;;;;;;;1.13;0.60;;;12.80;96.70;;;;;;5109900;27;20081;-80
2022/03/31 01:20:46;;;;;;;1.00;0.50;;;12.80;96.70;;;;;;5107882;27;20084;-79
2022/03/31 01:23:16;;;;;;;0.82;0.30;;;12.80;96.70;;;;;;5106494;28;20122;-80
2022/03/31 01:25:45;;;;;;;0.73;0.47;;;12.80;96.70;;;;;;5124180;27;20042;-80
2022/03/31 01:28:13;;;;;;;1.02;0.40;;;12.80;96.70;;;;;;5128103;27;20047;-79
2022/03/31 01:30:41;;;;;;;0.80;0.50;;;12.80;96.70;;;;;;5110391;27;20102;-79
2022/03/31 01:33:10;;;;;;;1.15;0.30;;;12.80;96.70;;;;;;5126348;27;20049;-80
2022/03/31 01:35:39;;;;;;;0.68;0.30;;;12.80;96.70;;;;;;5110432;27;20145;-80
2022/03/31 01:38:07;;;;;;;0.35;0.25;;;12.70;96.70;;;;;;5088944;27;20572;-80
2022/03/31 01:40:37;;;;;;;1.20;1.10;;;12.70;96.70;;;;;;5084929;27;20039;-80
2022/03/31 01:43:07;;;;;;;0.95;0.70;;;12.70;96.70;;;;;;5127570;27;20047;-79
2022/03/31 01:45:36;;;;;;;1.25;0.50;;;12.70;96.70;;;;;;5109424;27;20438;-79
2022/03/31 01:48:05;;;;;;;0.55;0.40;;;12.70;96.70;;;;;;5088543;27;20043;-80
2022/03/31 01:50:34;;;;;;;0.65;0.40;;;12.70;96.70;;;;;;5108347;27;20066;-80
2022/03/31 01:53:02;;;;;;;0.65;0.35;;;12.70;96.70;;;;;;5102537;28;20047;-79
2022/03/31 01:55:30;;;;;;;0.50;0.30;;;12.70;96.70;;;;;;5105977;27;20052;-79
2022/03/31 01:58:00;;;;;;;1.88;0.30;;;12.60;96.70;;;;;;5092345;27;20448;-79
2022/03/31 02:00:28;;;;;;;1.65;0.30;;;12.60;96.70;;;;;;5105810;27;20666;-79
2022/03/31 02:02:56;;;;;;;0.70;0.25;;;12.60;96.70;;;;;;5090533;27;20778;-79
2022/03/31 02:05:25;;;;;;;0.95;0.40;;;12.60;96.70;;;;;;5107224;27;20043;-80
2022/03/31 02:07:54;;;;;;;0.95;0.70;;;12.60;96.70;;;;;;5108102;27;20035;-80
2022/03/31 02:10:25;;;;;;;0.40;0.40;;;12.60;96.70;;;;;;5101699;27;20050;-79
2022/03/31 02:12:54;;;;;;;1.23;0.32;;;12.50;96.70;;;;;;5101922;27;20079;-78
2022/03/31 02:15:24;;;;;;;0.57;0.10;;;12.50;96.70;;;;;;5108129;27;20062;-79
2022/03/31 02:17:54;;;;;;;2.63;0.30;;;12.50;96.70;;;;;;5107251;28;20047;-79
2022/03/31 02:20:22;;;;;;;1.90;0.30;;;12.50;96.70;;;;;;5102568;27;20138;-80
2022/03/31 02:22:50;;;;;;;2.85;0.40;;;12.50;96.70;;;;;;5107161;27;20500;-79
2022/03/31 02:25:19;;;;;;;1.08;0.35;;;12.50;96.70;;;;;;5107838;27;20472;-79
2022/03/31 02:27:51;;;;;;;0.73;0.20;;;12.50;96.70;;;;;;5126258;27;20039;-79
2022/03/31 02:30:20;;;;;;;3.42;0.30;;;12.50;96.70;;;;;;5107920;27;20047;-79
2022/03/31 02:32:50;;;;;;;1.67;0.10;;;12.40;96.70;;;;;;5103965;27;20047;-79
2022/03/31 02:35:19;;;;;;;1.00;0.20;;;12.40;96.70;;;;;;5120885;27;20155;-79
2022/03/31 02:37:48;;;;;;;0.88;0.10;;;12.40;96.70;;;;;;5099531;27;20121;-79
2022/03/31 02:40:16;;;;;;;0.60;0.05;;;12.40;96.70;;;;;;5106493;27;20824;-80
2022/03/31 02:42:44;;;;;;;1.30;0.15;;;12.40;96.70;;;;;;5127944;27;20061;-79
2022/03/31 02:45:12;;;;;;;1.27;0.57;;;12.40;96.70;;;;;;5105456;28;20039;-79
2022/03/31 02:47:41;;;;;;;0.47;0.10;;;12.50;96.70;;;;;;5102650;27;20070;-79
2022/03/31 02:50:11;;;;;;;0.10;0.08;;;12.50;96.70;;;;;;5119213;27;20143;-79
2022/03/31 02:55:25;;;;;;;1.98;0.20;;;12.40;96.70;;;;;;5117976;28;20446;-79
2022/03/31 02:57:54;;;;;;;0.32;0.05;;;12.40;96.70;;;;;;5107087;28;20130;-79
2022/03/31 03:00:23;;;;;;;0.80;0.10;;;12.40;96.70;;;;;;5123694;28;20046;-80
2022/03/31 03:02:51;;;;;;;0.80;0.10;;;12.40;96.70;;;;;;5117316;27;20039;-79
2022/03/31 03:05:21;;;;;;;0.00;0.00;;;12.40;96.70;;;;;;5105884;28;20047;-80
2022/03/31 03:07:49;;;;;;;1.75;0.10;;;12.40;96.70;;;;;;5105407;28;20043;-79
2022/03/31 03:10:17;;;;;;;1.52;0.30;;;12.40;96.70;;;;;;5107423;28;20047;-79
2022/03/31 03:12:47;;;;;;;0.77;0.35;;;12.40;96.70;;;;;;5108984;27;20066;-79
2022/03/31 03:15:15;;;;;;;1.00;0.10;;;12.40;96.70;;;;;;5094686;27;20807;-79
2022/03/31 03:17:45;;;;;;;0.98;0.10;;;12.40;96.70;;;;;;5109819;27;20047;-79
2022/03/31 03:20:14;;;;;;;0.30;0.10;;;12.40;96.70;;;;;;5129262;27;20146;-79
2022/03/31 03:22:45;;;;;;;0.98;0.13;;;12.40;96.70;;;;;;5109705;27;20107;-79
2022/03/31 03:25:15;;;;;;;0.30;0.20;;;12.40;96.70;;;;;;5107272;27;20086;-79
2022/03/31 03:27:44;;;;;;;0.45;0.10;;;12.40;96.70;;;;;;5110193;27;20472;-79
2022/03/31 03:30:12;;;;;;;1.73;0.73;;;12.40;96.70;;;;;;5125915;27;20072;-79
2022/03/31 03:32:41;;;;;;;0.50;0.20;;;12.40;96.70;;;;;;5120079;27;20038;-80
2022/03/31 03:35:10;;;;;;;1.63;0.20;;;12.40;96.70;;;;;;5112401;27;20145;-79
2022/03/31 03:37:40;;;;;;;1.08;0.17;;;12.40;96.70;;;;;;5106864;27;20039;-79
2022/03/31 03:40:12;;;;;;;0.73;0.20;;;12.40;96.70;;;;;;5111838;27;20043;-80
2022/03/31 03:42:40;;;;;;;0.50;0.10;;;12.40;96.70;;;;;;5110753;27;20054;-78
2022/03/31 03:45:11;;;;;;;0.75;0.10;;;12.40;96.70;;;;;;5107202;27;20548;-80
2022/03/31 03:47:39;;;;;;;0.50;0.10;;;12.40;96.70;;;;;;5109928;27;20043;-79
2022/03/31 03:50:08;;;;;;;0.75;0.10;;;12.30;96.70;;;;;;5109015;27;20057;-79
2022/03/31 03:52:36;;;;;;;0.20;0.00;;;12.30;96.70;;;;;;5129662;27;20053;-79
2022/03/31 03:55:05;;;;;;;0.30;0.10;;;12.30;96.70;;;;;;5111581;27;20043;-79
2022/03/31 03:57:35;;;;;;;0.68;0.10;;;12.30;96.70;;;;;;5103966;27;20055;-79
2022/03/31 04:00:04;;;;;;;0.57;0.10;;;12.30;96.70;;;;;;5102848;27;20051;-80
2022/03/31 04:02:33;;;;;;;0.43;0.10;;;12.40;96.70;;;;;;5121917;27;20135;-79
2022/03/31 04:05:01;;;;;;;0.00;0.00;;;12.40;96.70;;;;;;5092598;27;20208;-80
2022/03/31 04:07:29;;;;;;;1.02;0.15;;;12.40;96.70;;;;;;5106599;27;20047;-79
2022/03/31 04:09:57;;;;;;;0.98;0.08;;;12.40;96.70;;;;;;5122496;27;20146;-79
2022/03/31 04:12:25;;;;;;;0.00;0.00;;;12.40;96.70;;;;;;5091572;27;20068;-79
2022/03/31 04:14:55;;;;;;;0.57;0.00;;;12.40;96.70;;;;;;5127688;27;20043;-80
2022/03/31 04:17:23;;;;;;;1.33;0.08;;;12.40;96.70;;;;;;5103921;27;20067;-78
2022/03/31 04:19:51;;;;;;;0.20;0.10;;;12.40;96.70;;;;;;5126729;27;20107;-79
2022/03/31 04:22:19;;;;;;;0.40;0.00;;;12.40;96.70;;;;;;5127008;27;20045;-79
2022/03/31 04:24:49;;;;;;;1.40;0.30;;;12.40;96.70;;;;;;5127608;27;20035;-79
2022/03/31 04:27:17;;;;;;;0.85;0.13;;;12.40;96.70;;;;;;5121054;27;20559;-79
2022/03/31 04:29:46;;;;;;;2.22;0.28;;;12.50;96.70;;;;;;5106439;27;20072;-79
2022/03/31 04:32:15;;;;;;;0.95;0.10;;;12.50;96.70;;;;;;5127694;27;20071;-79
2022/03/31 04:34:44;;;;;;;0.57;0.20;;;12.50;96.70;;;;;;5106839;27;20230;-79
2022/03/31 04:37:12;;;;;;;0.50;0.30;;;12.60;96.70;;;;;;5110064;27;20042;-79
2022/03/31 04:39:40;;;;;;;0.80;0.30;;;12.60;96.70;;;;;;5106215;27;20039;-79
2022/03/31 04:42:09;;;;;;;0.50;0.50;;;12.60;96.70;;;;;;5108381;27;20035;-79
2022/03/31 04:44:40;;;;;;;1.50;0.65;;;12.60;96.70;;;;;;5121909;27;20409;-79
2022/03/31 04:47:11;;;;;;;1.40;0.77;;;12.60;96.70;;;;;;5108604;27;20047;-79
2022/03/31 04:49:41;;;;;;;1.15;0.82;;;12.60;96.70;;;;;;5109189;27;20058;-79
2022/03/31 04:52:09;;;;;;;1.10;0.80;;;12.60;96.70;;;;;;5104489;28;20096;-80
2022/03/31 04:54:43;;;;;;;1.30;0.75;;;12.60;96.70;;;;;;5113238;27;20451;-80
2022/03/31 04:57:12;;;;;;;1.25;0.77;;;12.60;96.70;;;;;;5100478;28;20085;-79
2022/03/31 04:59:40;;;;;;;1.50;0.90;;;12.60;96.70;;;;;;5103947;27;20044;-79
2022/03/31 05:02:10;;;;;;;2.55;1.00;;;12.60;96.70;;;;;;5100768;28;20123;-79
2022/03/31 05:04:38;;;;;;;1.67;1.20;;;12.50;96.70;;;;;;5102573;28;20032;-79
2022/03/31 05:07:08;;;;;;;1.88;1.10;;;12.40;96.70;;;;;;5106239;28;20047;-80
2022/03/31 05:09:37;;;;;;;0.88;0.73;;;12.50;96.70;;;;;;5100800;28;20335;-80
2022/03/31 05:12:06;;;;;;;1.98;0.63;;;12.50;96.70;;;;;;5094724;28;20131;-79
2022/03/31 05:14:34;;;;;;;1.58;0.50;;;12.40;96.70;;;;;;5099006;28;20047;-79
2022/03/31 05:17:03;;;;;;;1.90;0.80;;;12.40;96.70;;;;;;5103893;28;20167;-79
2022/03/31 05:19:31;;;;;;;1.30;0.60;;;12.30;96.70;;;;;;5102003;28;20054;-79
2022/03/31 05:22:00;;;;;;;2.58;0.40;;;12.30;96.70;;;;;;5105833;28;20052;-79
2022/03/31 05:24:29;;;;;;;0.85;0.10;;;12.20;96.70;;;;;;5102532;28;20031;-79
2022/03/31 05:26:57;;;;;;;0.95;0.17;;;12.10;96.70;;;;;;5103241;27;20038;-79
2022/03/31 05:29:26;;;;;;;0.40;0.20;;;12.10;96.70;;;;;;5098137;28;20070;-79
2022/03/31 05:31:55;;;;;;;0.20;0.10;;;12.10;96.70;;;;;;5083432;28;20709;-78
2022/03/31 05:34:24;;;;;;;0.17;0.10;;;12.10;96.70;;;;;;5095207;28;20063;-80
2022/03/31 05:36:52;;;;;;;1.10;0.10;;;12.00;96.70;;;;;;5123361;27;20123;-81
2022/03/31 05:39:20;;;;;;;0.80;0.13;;;12.10;96.70;;;;;;5106511;28;20093;-80
2022/03/31 05:41:50;;;;;;;0.43;0.17;;;12.10;96.70;;;;;;5106432;28;20031;-80
2022/03/31 05:44:18;;;;;;;0.80;0.10;;;12.00;96.70;;;;;;5107256;28;20845;-79
2022/03/31 05:46:46;;;;;;;0.40;0.10;;;12.00;96.70;;;;;;5106590;27;20046;-81
2022/03/31 05:49:14;;;;;;;1.05;0.30;;;12.00;96.70;;;;;;5106803;28;20047;-81
2022/03/31 05:51:42;;;;;;;0.50;0.20;;;12.10;96.70;;;;;;5083789;28;20059;-80
2022/03/31 05:54:11;;;;;;;0.40;0.13;;;12.10;96.70;;;;;;5100897;28;20721;-80
2022/03/31 05:56:39;;;;;;;1.02;0.20;;;12.00;96.70;;;;;;5095738;28;20047;-79
2022/03/31 05:59:08;;;;;;;0.50;0.10;;;12.00;96.70;;;;;;5097907;28;20099;-79
2022/03/31 06:01:36;;;;;;;0.57;0.15;;;12.00;96.70;;;;;;5105659;27;20047;-80
2022/03/31 06:04:05;;;;;;;0.13;0.13;;;12.00;96.70;;;;;;5100283;28;20040;-81
2022/03/31 06:06:33;;;;;;;2.28;0.20;;;12.00;96.70;;;;;;5106651;28;20713;-80
2022/03/31 06:09:01;;;;;;;0.85;0.15;;;11.90;96.70;;;;;;5107891;28;20035;-79
2022/03/31 06:11:30;;;;;;;2.30;0.30;;;11.80;96.70;;;;;;5104580;28;20051;-79
2022/03/31 06:13:58;;;;;;;0.85;0.10;;;11.80;96.70;;;;;;5100851;28;20147;-81
2022/03/31 06:16:28;;;;;;;0.30;0.10;;;11.80;96.70;;;;;;5105757;28;20254;-80
2022/03/31 06:18:56;;;;;;;0.30;0.10;;;11.80;96.70;;;;;;5118523;27;20074;-82
2022/03/31 06:21:25;;;;;;;0.50;0.10;;;11.80;96.70;;;;;;5097937;28;20050;-80
2022/03/31 06:23:53;;;;;;;0.75;0.10;;;11.80;96.70;;;;;;5105049;28;20207;-80
2022/03/31 06:26:22;;;;;;;0.32;0.10;;;11.80;96.70;;;;;;5103165;28;20448;-80
2022/03/31 06:28:50;;;;;;;1.95;0.20;;;11.80;96.70;;;;;;5105930;28;20040;-81
2022/03/31 06:31:18;;;;;;;0.52;0.15;;;11.80;96.70;;;;;;5105205;28;20485;-80
2022/03/31 06:33:50;;;;;;;1.10;0.13;;;11.80;96.70;;;;;;5087670;28;20040;-81
2022/03/31 06:36:19;;;;;;;1.63;0.10;;;11.80;96.70;;;;;;5102256;28;20075;-82
2022/03/31 06:38:47;;;;;;;0.55;0.10;;;11.90;96.70;;;;;;5102717;28;20035;-81
2022/03/31 06:41:17;;;;;;;2.00;0.17;;;11.90;96.70;;;;;;5101596;28;20644;-79
2022/03/31 06:43:48;;;;;;;0.20;0.13;;;11.90;96.70;;;;;;5104619;28;20078;-81
2022/03/31 06:46:17;;;;;;;0.60;0.10;;;12.00;96.70;;;;;;5088139;28;20378;-80
2022/03/31 06:48:48;;;;;;;1.42;0.20;;;12.00;96.70;;;;;;5106575;28;20035;-81
2022/03/31 06:51:17;;;;;;;0.65;0.20;;;12.00;96.70;;;;;;5104258;28;20056;-80
2022/03/31 06:53:45;;;;;;;0.80;0.40;;;11.90;96.70;;;;;;5081166;28;20039;-80
2022/03/31 06:56:16;;;;;;;0.55;0.10;;;11.90;96.70;;;;;;5096178;28;20562;-81
2022/03/31 06:58:44;;;;;;;0.75;0.25;;;11.90;96.70;;;;;;5088421;28;20569;-81
2022/03/31 07:01:13;;;;;;;0.40;0.20;;;12.00;96.70;;;;;;5100082;28;20044;-81
2022/03/31 07:03:41;;;;;;;0.10;0.10;;;12.00;96.70;;;;;;5102052;28;20043;-80
2022/03/31 07:06:11;;;;;;;0.90;0.10;;;12.00;96.70;;;;;;5081330;28;20050;-82
2022/03/31 07:08:39;;;;;;;1.55;0.13;;;12.00;96.70;;;;;;5101073;28;20044;-81
2022/03/31 07:11:09;;;;;;;1.92;0.40;;;12.00;96.70;;;;;;5100941;28;20044;-80
2022/03/31 07:13:37;;;;;;;1.20;0.38;;;12.00;96.70;;;;;;5102454;28;20079;-80
2022/03/31 07:16:06;;;;;;;1.15;0.20;;;12.00;96.70;;;;;;5103987;28;20104;-80
2022/03/31 07:18:34;;;;;;;1.15;0.30;;;12.00;96.70;;;;;;5092202;28;20127;-80
2022/03/31 07:21:02;;;;;;;0.60;0.20;;;12.00;96.70;;;;;;5081912;28;20439;-80
2022/03/31 07:23:32;;;;;;;1.92;0.38;;;12.00;96.70;;;;;;5102849;28;20055;-80
2022/03/31 07:26:00;;;;;;;0.68;0.30;;;12.00;96.70;;;;;;5078754;28;20509;-81
2022/03/31 07:28:29;;;;;;;0.57;0.25;;;12.10;96.70;;;;;;5104544;28;20130;-80
2022/03/31 07:30:57;;;;;;;1.17;0.30;;;12.10;96.70;;;;;;5086970;28;20764;-80
2022/03/31 07:33:25;;;;;;;1.17;0.30;;;12.00;96.70;;;;;;5101776;28;20047;-81
2022/03/31 07:35:53;;;;;;;1.45;0.28;;;12.10;96.70;;;;;;5092625;28;20418;-81
2022/03/31 07:38:22;;;;;;;1.50;0.43;;;12.10;96.70;;;;;;5104266;28;20541;-81
2022/03/31 07:40:52;;;;;;;1.00;0.30;;;12.00;96.70;;;;;;5105351;28;20047;-81
2022/03/31 07:43:20;;;;;;;1.02;0.40;;;12.00;96.70;;;;;;5105087;28;20048;-81
2022/03/31 07:45:48;;;;;;;1.00;0.40;;;12.00;96.70;;;;;;5102332;28;20047;-80
2022/03/31 07:48:18;;;;;;;0.90;0.40;;;12.00;96.70;;;;;;5104548;28;20043;-80
2022/03/31 07:50:46;;;;;;;1.98;0.50;;;12.00;96.70;;;;;;5102019;28;20091;-81
2022/03/31 07:53:17;;;;;;;1.15;0.50;;;12.00;96.70;;;;;;5067839;28;20440;-81
2022/03/31 07:55:45;;;;;;;2.40;0.80;;;12.10;96.70;;;;;;5067603;28;20066;-81
2022/03/31 07:58:14;;;;;;;2.47;0.88;;;12.10;96.70;;;;;;5090432;28;20044;-81
2022/03/31 08:00:43;;;;;;;3.38;1.00;;;12.10;96.70;;;;;;5083436;28;20059;-80
2022/03/31 08:03:11;;;;;;;3.05;0.88;;;12.10;96.70;;;;;;5068269;28;20046;-80
2022/03/31 08:05:40;;;;;;;2.38;0.70;;;12.10;96.70;;;;;;5080985;28;20040;-80
2022/03/31 08:08:08;;;;;;;3.97;0.80;;;12.10;96.70;;;;;;5090920;28;20062;-81
2022/03/31 08:10:36;;;;;;;2.80;0.90;;;12.10;96.70;;;;;;5087873;28;20044;-80
2022/03/31 08:13:06;;;;;;;2.20;0.80;;;12.10;96.70;;;;;;5097831;28;20055;-82
2022/03/31 08:15:37;;;;;;;3.17;0.63;;;12.20;96.70;;;;;;5088394;28;20048;-81
2022/03/31 08:18:06;;;;;;;0.77;0.40;;;12.20;96.70;;;;;;5089231;28;20036;-80
2022/03/31 08:20:34;;;;;;;0.40;0.30;;;12.30;96.70;;;;;;5088112;28;20480;-81
2022/03/31 08:23:02;;;;;;;2.05;0.47;;;12.20;96.70;;;;;;5079202;28;20043;-81
2022/03/31 08:25:31;;;;;;;0.88;0.30;;;12.30;96.70;;;;;;5087696;28;20048;-81
2022/03/31 08:27:59;;;;;;;0.68;0.30;;;12.30;96.70;;;;;;5073445;28;20450;-80
2022/03/31 08:30:32;;;;;;;0.90;0.20;;;12.30;96.70;;;;;;5087926;28;20097;-80
2022/03/31 08:33:02;;;;;;;2.25;1.00;;;12.30;96.70;;;;;;5078025;28;20039;-81
2022/03/31 08:35:30;;;;;;;0.82;0.40;;;12.40;96.70;;;;;;5090344;28;20294;-82
2022/03/31 08:37:58;;;;;;;1.48;0.50;;;12.40;96.70;;;;;;5090215;28;20628;-81
2022/03/31 08:40:27;;;;;;;0.63;0.40;;;12.40;96.70;;;;;;5088195;28;20040;-82
2022/03/31 08:42:55;;;;;;;1.13;0.40;;;12.40;96.70;;;;;;5087676;28;20050;-81
2022/03/31 08:45:23;;;;;;;1.17;0.38;;;12.50;96.70;;;;;;5091971;28;20093;-82
2022/03/31 08:47:54;;;;;;;1.30;0.35;;;12.50;96.70;;;;;;5098011;28;20047;-81
2022/03/31 08:50:23;;;;;;;0.82;0.40;;;12.50;96.70;;;;;;5096147;27;20055;-81
2022/03/31 08:52:53;;;;;;;1.35;0.40;;;12.50;96.70;;;;;;5090702;28;20047;-81
2022/03/31 08:55:21;;;;;;;2.10;0.88;;;12.50;96.70;;;;;;5092165;27;20047;-82
2022/03/31 08:57:51;;;;;;;1.13;0.63;;;12.50;96.70;;;;;;5093566;27;20055;-82
2022/03/31 09:00:21;;;;;;;2.30;0.60;;;12.50;96.70;;;;;;5100108;27;20109;-80
2022/03/31 09:02:58;;;;;;;1.83;1.45;;;12.50;96.70;;;;;;5103415;27;20115;-80
2022/03/31 09:05:34;;;;;;;1.58;0.60;;;12.40;96.70;;;;;;5101484;28;20071;-80
2022/03/31 09:08:05;;;;;;;0.32;0.30;;;12.40;96.70;;;;;;5113303;27;20043;-81
2022/03/31 09:10:36;;;;;;;0.93;0.30;;;12.20;96.70;;;;;;5106424;27;20493;-81
2022/03/31 09:13:17;;;;;;;1.13;0.35;;;12.20;96.70;;;;;;5092832;27;20063;-81
2022/03/31 09:15:51;;;;;;;1.50;0.50;;;12.20;96.70;;;;;;5137822;27;20043;-80
2022/03/31 09:18:20;;;;;;;1.77;0.65;;;12.20;96.70;;;;;;5128351;27;20043;-80
2022/03/31 09:20:52;;;;;;;2.42;1.95;;;12.20;96.70;;;;;;5094159;27;20516;-81
2022/03/31 09:23:22;;;;;;;4.88;3.30;;;12.20;96.70;;;;;;5124297;27;20047;-80
2022/03/31 09:25:52;;;;;;;5.85;2.80;;;12.20;96.70;;;;;;5094027;27;20138;-81
2022/03/31 09:28:22;;;;;;;6.45;4.55;;;12.20;96.70;;;;;;5110224;27;20088;-81
2022/03/31 09:30:51;;;;;;;9.65;8.70;;;12.10;96.70;;;;;;5127846;27;20050;-81
2022/03/31 09:33:28;;;;;;;2.03;1.48;;;12.10;96.70;;;;;;5109955;27;20583;-81
2022/03/31 09:36:00;;;;;;;1.83;1.00;;;12.00;96.70;;;;;;5106131;27;20185;-81
2022/03/31 09:38:28;;;;;;;3.85;2.45;;;11.90;96.70;;;;;;5109651;27;20083;-79
2022/03/31 09:40:58;;;;;;;2.80;1.20;;;11.80;96.70;;;;;;5103670;27;20039;-80
2022/03/31 09:43:26;;;;;;;2.40;0.60;;;11.70;96.70;;;;;;5110099;27;20047;-80
2022/03/31 09:45:54;;;;;;;1.50;0.40;;;11.70;96.70;;;;;;5099417;27;20454;-78
2022/03/31 09:48:25;;;;;;;1.13;0.30;;;11.70;96.70;;;;;;5089508;27;20054;-78
2022/03/31 09:50:53;;;;;;;2.33;0.30;;;11.80;96.70;;;;;;5096905;28;20472;-78
2022/03/31 09:53:27;;;;;;;1.10;0.50;;;11.90;96.70;;;;;;5095560;28;20043;-78
2022/03/31 09:55:55;;;;;;;0.75;0.30;;;11.90;96.70;;;;;;5103337;28;20040;-79
2022/03/31 09:58:24;;;;;;;1.70;0.35;;;11.90;96.70;;;;;;5101248;28;20071;-78
2022/03/31 10:00:52;;;;;;;1.60;0.30;;;12.00;96.70;;;;;;5099352;28;20118;-78
2022/03/31 10:03:24;;;;;;;0.40;0.20;;;11.90;96.70;;;;;;5101698;28;20040;-78
2022/03/31 10:05:53;;;;;;;1.95;0.20;;;12.00;96.70;;;;;;5101502;28;20063;-79
2022/03/31 10:08:23;;;;;;;0.30;0.15;;;12.00;96.70;;;;;;5101673;28;20067;-79
2022/03/31 10:10:52;;;;;;;1.88;0.43;;;12.10;96.70;;;;;;5102921;27;20039;-78
2022/03/31 10:13:26;;;;;;;1.58;0.47;;;12.10;96.70;;;;;;5097785;28;20047;-79
2022/03/31 10:15:59;;;;;;;0.63;0.40;;;12.20;96.70;;;;;;5084054;28;20080;-78
2022/03/31 10:18:28;;;;;;;0.77;0.38;;;12.20;96.70;;;;;;5099596;28;20051;-79
2022/03/31 10:20:57;;;;;;;0.98;0.30;;;12.20;96.70;;;;;;5102584;28;20523;-79
2022/03/31 10:26:22;;;;;;;1.13;0.20;;;12.40;96.70;;;;;;5101819;28;20062;-80
2022/03/31 10:28:54;;;;;;;1.05;0.30;;;12.40;96.70;;;;;;5104304;28;20520;-79
2022/03/31 10:31:33;;;;;;;0.68;0.28;;;12.50;96.70;;;;;;5101242;28;20071;-79
2022/03/31 10:34:02;;;;;;;0.35;0.30;;;12.50;96.70;;;;;;5100654;28;20089;-79
2022/03/31 10:36:39;;;;;;;0.77;0.20;;;12.50;96.70;;;;;;5102917;28;20089;-80
2022/03/31 10:39:16;;;;;;;1.13;0.50;;;12.50;96.70;;;;;;5097195;28;20043;-79
2022/03/31 10:41:45;;;;;;;1.10;0.50;;;12.60;96.70;;;;;;5102403;28;20040;-79
2022/03/31 10:44:18;;;;;;;0.73;0.38;;;12.70;96.70;;;;;;5084393;28;20036;-79
2022/03/31 10:46:58;;;;;;;1.35;0.28;;;12.70;96.70;;;;;;5099395;28;20055;-80
2022/03/31 10:49:27;;;;;;;0.77;0.30;;;12.90;96.70;;;;;;5099565;28;20184;-81
2022/03/31 10:51:56;;;;;;;1.23;0.40;;;13.10;96.70;;;;;;5080555;28;20048;-80
2022/03/31 10:54:28;;;;;;;0.75;0.32;;;13.30;96.70;;;;;;5089431;28;20409;-82
2022/03/31 10:57:08;;;;;;;1.35;0.40;;;13.30;96.70;;;;;;5087487;28;20105;-78
2022/03/31 10:59:37;;;;;;;1.35;0.20;;;13.40;96.70;;;;;;5089104;28;20138;-78
2022/03/31 11:02:11;;;;;;;0.47;0.20;;;13.40;96.70;;;;;;5099499;28;20067;-79
2022/03/31 11:04:48;;;;;;;1.65;0.50;;;13.50;96.70;;;;;;5082639;28;20048;-82
2022/03/31 11:07:18;;;;;;;2.67;0.50;;;13.60;96.70;;;;;;5085269;28;20075;-77
2022/03/31 11:09:58;;;;;;;0.93;0.40;;;13.70;96.70;;;;;;5084439;28;20048;-77
2022/03/31 11:12:29;;;;;;;1.10;0.60;;;13.70;96.70;;;;;;5080511;28;20056;-78
2022/03/31 11:15:02;;;;;;;0.85;0.70;;;13.60;96.70;;;;;;5065548;28;20039;-77
2022/03/31 11:17:31;;;;;;;1.20;0.70;;;13.40;96.70;;;;;;5093857;28;20113;-77
2022/03/31 11:20:06;;;;;;;0.85;0.40;;;13.40;96.70;;;;;;5074300;28;20050;-78
2022/03/31 11:22:45;;;;;;;0.60;0.43;;;13.50;96.70;;;;;;5073651;28;20575;-78
2022/03/31 11:25:19;;;;;;;0.70;0.60;;;13.40;96.70;;;;;;5078759;28;20044;-77
2022/03/31 11:27:52;;;;;;;0.73;0.40;;;13.40;96.70;;;;;;5088017;28;20036;-77
2022/03/31 11:30:26;;;;;;;1.08;0.60;;;13.40;96.70;;;;;;5065557;28;20072;-77
2022/03/31 11:32:58;;;;;;;3.25;1.23;;;13.40;96.70;;;;;;5074734;28;20051;-78
2022/03/31 11:35:29;;;;;;;0.73;0.60;;;13.30;96.70;;;;;;5076073;28;20428;-78
2022/03/31 11:38:00;;;;;;;1.80;0.70;;;13.30;96.70;;;;;;5089288;28;20063;-78
2022/03/31 11:40:32;;;;;;;2.13;1.10;;;13.30;96.70;;;;;;5072075;28;20084;-77
2022/03/31 11:43:05;;;;;;;1.83;1.63;;;13.20;96.70;;;;;;5087712;28;20047;-77
2022/03/31 11:45:36;;;;;;;1.60;1.17;;;13.20;96.70;;;;;;5086127;28;20402;-78
2022/03/31 11:48:08;;;;;;;1.13;0.80;;;13.10;96.70;;;;;;5085401;28;20115;-79
2022/03/31 11:50:40;;;;;;;0.63;0.57;;;13.10;96.70;;;;;;5111658;27;20059;-77
2022/03/31 11:53:37;;;;;;;1.13;0.85;;;13.10;96.70;;;;;;5091167;28;20036;-77
2022/03/31 11:56:10;;;;;;;3.60;1.05;;;13.10;96.70;;;;;;5086820;28;20074;-78
2022/03/31 11:58:46;;;;;;;2.15;1.00;;;13.20;96.70;;;;;;5071111;28;20071;-77
2022/03/31 12:01:15;;;;;;;1.38;1.00;;;13.20;96.70;;;;;;5077974;28;20056;-77
2022/03/31 12:03:47;;;;;;;2.42;0.80;;;13.20;96.70;;;;;;5098583;28;20047;-77
2022/03/31 12:06:20;;;;;;;1.08;0.90;;;13.30;96.70;;;;;;5090164;28;20052;-78
2022/03/31 12:08:48;;;;;;;1.73;0.80;;;13.30;96.70;;;;;;5085094;28;20219;-78
2022/03/31 12:11:19;;;;;;;0.70;0.40;;;13.20;96.70;;;;;;5086536;28;20048;-77
2022/03/31 12:13:51;;;;;;;1.77;0.60;;;13.20;96.70;;;;;;5082522;28;20123;-74
2022/03/31 12:16:22;;;;;;;1.45;0.40;;;13.30;96.70;;;;;;5082948;28;20048;-75
2022/03/31 12:18:55;;;;;;;2.38;0.38;;;13.30;96.70;;;;;;5082809;28;20036;-75
2022/03/31 12:21:24;;;;;;;1.15;0.40;;;13.20;96.70;;;;;;5088550;28;20143;-75
2022/03/31 12:23:56;;;;;;;1.05;0.50;;;13.30;96.70;;;;;;5091114;28;20522;-75
2022/03/31 12:26:55;;;;;;;1.88;0.70;;;13.40;96.70;;;;;;5082370;28;20094;-76
2022/03/31 12:29:29;;;;;;;;;;;13.50;96.70;;;;;;5064857;28;20063;-76
2022/03/31 12:32:04;;;;;;;1.85;0.47;;;13.60;96.70;;;;;;5083826;28;20417;-77
2022/03/31 12:34:36;;;;;;;1.92;0.75;;;13.70;96.70;;;;;;5089158;28;20740;-78
2022/03/31 12:37:06;;;;;;;3.30;0.90;;;13.60;96.70;;;;;;5090557;28;20048;-79
2022/03/31 12:39:44;;;;;;;1.38;0.50;;;13.40;96.70;;;;;;5094271;28;20072;-77
2022/03/31 12:42:18;;;;;;;3.20;1.00;;;13.30;96.70;;;;;;5082987;28;20047;-79
2022/03/31 12:44:48;;;;;;;2.22;0.63;;;13.30;96.70;;;;;;5085052;28;20054;-78
2022/03/31 12:47:21;;;;;;;1.90;0.68;;;13.30;96.70;;;;;;5078839;28;20052;-78
2022/03/31 12:49:50;;;;;;;1.67;0.70;;;13.30;96.70;;;;;;5095633;28;20044;-78
2022/03/31 12:52:21;;;;;;;1.55;0.55;;;13.30;96.70;;;;;;5097901;28;20083;-77
2022/03/31 12:54:59;;;;;;;7.60;4.18;;;13.30;96.70;;;;;;5102634;28;20038;-77
2022/03/31 12:57:29;;;;;;;3.70;1.20;;;13.30;96.70;;;;;;5107462;28;20043;-80
2022/03/31 13:00:00;;;;;;;3.20;0.82;;;13.30;96.70;;;;;;5093177;28;20039;-78
2022/03/31 13:02:43;;;;;;;2.05;1.25;;;13.10;96.70;;;;;;5091889;28;20047;-78
2022/03/31 13:05:18;;;;;;;2.47;0.75;;;13.20;96.70;;;;;;5089486;28;20048;-78
2022/03/31 13:07:47;;;;;;;1.77;0.60;;;13.20;96.70;;;;;;5106048;28;20055;-78